createdAt,value
2022-11-18T00:02:19.506Z,22.20
2022-11-18T00:07:22.611Z,22.10
2022-11-18T00:12:44.305Z,22.10
2022-11-18T00:17:47.324Z,22.00
2022-11-18T00:22:50.316Z,22.00
2022-11-18T00:27:55.449Z,21.90
2022-11-18T00:32:58.415Z,21.90
2022-11-18T00:38:01.439Z,21.90
2022-11-18T00:43:05.777Z,21.80
2022-11-18T00:48:08.802Z,21.80
2022-11-18T00:53:11.764Z,21.80
2022-11-18T00:58:16.519Z,21.70
2022-11-18T01:03:20.204Z,21.70
2022-11-18T01:08:24.139Z,21.70
2022-11-18T01:13:29.234Z,21.60
2022-11-18T01:18:32.612Z,21.60
2022-11-18T01:23:35.639Z,21.60
2022-11-18T01:28:40.656Z,21.50
2022-11-18T01:33:44.267Z,21.40
2022-11-18T01:38:48.252Z,21.40
2022-11-18T01:43:55.590Z,21.40
2022-11-18T01:49:03.754Z,21.40
2022-11-18T01:54:11.793Z,21.40
2022-11-18T01:59:19.984Z,21.30
2022-11-18T02:04:24.109Z,21.30
2022-11-18T02:09:27.112Z,21.30
2022-11-18T02:14:35.005Z,21.20
2022-11-18T02:20:09.232Z,21.20
2022-11-18T02:25:23.510Z,21.10
2022-11-18T02:30:29.544Z,21.10
2022-11-18T02:35:39.464Z,21.10
2022-11-18T02:40:45.711Z,21.00
2022-11-18T02:45:53.356Z,21.00
2022-11-18T02:50:57.131Z,21.00
2022-11-18T02:56:02.900Z,20.90
2022-11-18T03:01:07.547Z,20.90
2022-11-18T03:06:17.504Z,20.90
2022-11-18T03:11:25.031Z,20.90
2022-11-18T03:16:36.291Z,20.80
2022-11-18T03:21:42.920Z,20.80
2022-11-18T03:26:51.833Z,20.70
2022-11-18T03:32:01.351Z,20.70
2022-11-18T03:37:10.442Z,20.70
2022-11-18T03:42:17.938Z,20.70
2022-11-18T03:47:27.252Z,20.70
2022-11-18T03:52:34.664Z,20.70
2022-11-18T03:57:46.212Z,20.70
2022-11-18T04:02:51.613Z,20.60
2022-11-18T04:07:58.702Z,20.60
2022-11-18T04:13:07.690Z,20.60
2022-11-18T04:18:12.337Z,20.60
2022-11-18T04:23:15.438Z,20.60
2022-11-18T04:28:18.435Z,20.60
2022-11-18T04:33:22.857Z,20.60
2022-11-18T04:38:25.883Z,20.50
2022-11-18T04:43:28.909Z,20.50
2022-11-18T04:48:33.284Z,20.50
2022-11-18T04:53:36.294Z,20.50
2022-11-18T04:58:39.292Z,20.50
2022-11-18T05:03:47.758Z,20.40
2022-11-18T05:08:53.435Z,20.50
2022-11-18T05:13:56.497Z,20.50
2022-11-18T05:19:02.538Z,20.40
2022-11-18T05:24:06.426Z,20.40
2022-11-18T05:29:09.499Z,20.40
2022-11-18T05:34:15.090Z,20.40
2022-11-18T05:39:18.475Z,20.40
2022-11-18T05:44:21.688Z,20.40
2022-11-18T05:49:26.280Z,20.40
2022-11-18T05:54:29.547Z,20.40
2022-11-18T05:59:32.593Z,20.40
2022-11-18T06:04:40.584Z,20.40
2022-11-18T06:09:46.240Z,20.30
2022-11-18T06:14:54.228Z,20.30
2022-11-18T06:19:59.623Z,20.30
2022-11-18T06:25:03.754Z,20.30
2022-11-18T06:30:07.939Z,20.30
2022-11-18T06:35:12.423Z,20.30
2022-11-18T06:40:15.549Z,20.20
2022-11-18T06:45:18.632Z,20.20
2022-11-18T06:50:23.051Z,20.20
2022-11-18T06:55:26.036Z,20.20
2022-11-18T07:00:29.136Z,20.20
2022-11-18T07:05:33.609Z,20.20
2022-11-18T07:10:36.642Z,20.20
2022-11-18T07:15:39.744Z,20.20
2022-11-18T07:20:44.152Z,20.10
2022-11-18T07:25:47.183Z,20.10
2022-11-18T07:30:50.302Z,20.10
2022-11-18T07:35:54.736Z,20.10
2022-11-18T07:41:03.612Z,20.10
2022-11-18T07:46:17.276Z,20.10
2022-11-18T07:51:24.139Z,20.10
2022-11-18T07:56:27.228Z,20.10
2022-11-18T08:01:30.967Z,20.10
2022-11-18T08:06:36.420Z,20.10
2022-11-18T08:11:40.886Z,20.10
2022-11-18T08:16:43.892Z,20.10
2022-11-18T08:21:48.477Z,20.10
2022-11-18T08:26:51.582Z,20.10
2022-11-18T08:31:54.718Z,20.10
2022-11-18T08:36:59.125Z,20.10
2022-11-18T08:42:02.171Z,20.10
2022-11-18T08:47:05.333Z,20.20
2022-11-18T08:52:09.928Z,20.20
2022-11-18T08:57:12.902Z,20.20
2022-11-18T09:02:19.845Z,20.20
2022-11-18T09:07:24.367Z,20.20
2022-11-18T09:12:27.502Z,20.20
2022-11-18T09:17:30.527Z,20.20
2022-11-18T09:22:37.344Z,20.20
2022-11-18T09:27:40.414Z,20.20
2022-11-18T09:32:43.423Z,20.20
2022-11-18T09:37:47.786Z,20.10
2022-11-18T09:43:00.550Z,20.10
2022-11-18T09:48:19.168Z,20.10
2022-11-18T09:53:25.982Z,20.10
2022-11-18T09:58:35.073Z,20.10
2022-11-18T10:03:39.998Z,20.10
2022-11-18T10:08:47.887Z,20.10
2022-11-18T10:14:02.355Z,20.10
2022-11-18T10:19:15.155Z,20.10
2022-11-18T10:24:22.016Z,20.00
2022-11-18T10:29:25.508Z,20.10
2022-11-18T10:34:28.528Z,20.00
2022-11-18T10:39:33.295Z,20.00
2022-11-18T10:44:39.124Z,20.00
2022-11-18T10:49:42.151Z,20.00
2022-11-18T10:54:47.089Z,20.00
2022-11-18T10:59:53.403Z,20.00
2022-11-18T11:04:56.511Z,20.00
2022-11-18T11:10:22.803Z,20.00
2022-11-18T11:15:33.340Z,19.90
2022-11-18T11:20:37.474Z,20.00
2022-11-18T11:31:16.025Z,19.90
2022-11-18T11:36:33.455Z,19.90
2022-11-18T11:41:46.679Z,19.90
2022-11-18T11:47:18.418Z,19.90
2022-11-18T11:52:32.979Z,19.90
2022-11-18T11:57:48.384Z,19.90
2022-11-18T12:03:06.274Z,19.90
2022-11-18T12:08:15.398Z,19.90
2022-11-18T12:13:44.585Z,19.90
2022-11-18T12:18:51.570Z,19.90
2022-11-18T12:24:31.126Z,19.90
2022-11-18T12:29:43.227Z,19.90
2022-11-18T12:34:46.412Z,19.90
2022-11-18T12:39:58.460Z,19.90
2022-11-18T12:45:48.549Z,19.90
2022-11-18T12:50:52.737Z,19.90
2022-11-18T12:55:55.997Z,19.90
2022-11-18T13:01:09.035Z,19.90
2022-11-18T13:06:25.597Z,19.90
2022-11-18T13:11:50.485Z,19.80
2022-11-18T13:17:12.235Z,19.80
2022-11-18T13:22:37.067Z,19.90
2022-11-18T13:27:50.239Z,19.80
2022-11-18T13:32:58.804Z,19.80
2022-11-18T13:38:03.215Z,19.80
2022-11-18T13:43:06.875Z,19.80
2022-11-18T13:48:15.054Z,19.80
2022-11-18T13:53:29.150Z,19.80
2022-11-18T13:59:10.404Z,19.80
2022-11-18T14:04:06.592Z,19.80
2022-11-18T14:09:21.211Z,19.80
2022-11-18T14:14:30.725Z,19.80
2022-11-18T14:19:36.270Z,20.00
2022-11-18T14:24:39.458Z,20.20
2022-11-18T14:29:51.962Z,20.30
2022-11-18T14:35:00.678Z,20.50
2022-11-18T14:40:03.724Z,20.90
2022-11-18T14:45:07.373Z,21.30
2022-11-18T14:50:13.717Z,21.80
2022-11-18T14:55:16.895Z,22.40
2022-11-18T15:00:20.399Z,23.10
2022-11-18T15:05:24.782Z,23.60
2022-11-18T15:10:27.889Z,24.00
2022-11-18T15:15:31.048Z,24.20
2022-11-18T15:20:35.513Z,24.30
2022-11-18T15:25:38.630Z,24.40
2022-11-18T15:30:41.680Z,24.50
2022-11-18T15:35:46.029Z,24.60
2022-11-18T15:40:48.984Z,24.70
2022-11-18T15:45:58.052Z,24.70
2022-11-18T15:51:05.280Z,24.70
2022-11-18T15:56:25.577Z,24.70
2022-11-18T16:01:31.031Z,24.60
2022-11-18T16:06:35.898Z,24.50
2022-11-18T16:11:56.571Z,24.50
2022-11-18T16:16:59.585Z,24.60
2022-11-18T16:22:03.976Z,24.80
2022-11-18T16:27:06.913Z,24.90
2022-11-18T16:32:15.102Z,25.10
2022-11-18T16:37:19.451Z,25.10
2022-11-18T16:42:22.461Z,25.20
2022-11-18T16:47:25.465Z,25.20
2022-11-18T16:52:29.831Z,25.20
2022-11-18T16:57:32.830Z,25.10
2022-11-18T17:02:36.317Z,25.10
2022-11-18T17:07:41.145Z,25.00
2022-11-18T17:12:44.195Z,25.00
2022-11-18T17:17:47.142Z,25.00
2022-11-18T17:22:53.410Z,25.00
2022-11-18T17:27:56.389Z,25.10
2022-11-18T17:32:59.350Z,25.00
2022-11-18T17:38:03.734Z,25.10
2022-11-18T17:43:06.779Z,25.10
2022-11-18T17:48:09.737Z,25.10
2022-11-18T17:53:14.649Z,25.20
2022-11-18T17:58:17.694Z,25.20
2022-11-18T18:03:20.724Z,25.30
2022-11-18T18:08:25.055Z,25.30
2022-11-18T18:13:45.685Z,25.30
2022-11-18T18:18:48.700Z,25.30
2022-11-18T18:23:53.160Z,25.30
2022-11-18T18:28:56.126Z,25.30
2022-11-18T18:33:59.190Z,25.30
2022-11-18T18:39:03.656Z,25.30
2022-11-18T18:44:06.728Z,25.60
2022-11-18T18:49:11.909Z,25.70
2022-11-18T18:54:18.159Z,25.80
2022-11-18T18:59:21.410Z,26.00
2022-11-18T19:04:24.440Z,26.00
2022-11-18T19:09:28.829Z,26.10
2022-11-18T19:14:33.553Z,26.10
2022-11-18T19:19:53.878Z,26.10
2022-11-18T19:24:58.838Z,26.10
2022-11-18T19:30:02.188Z,26.00
2022-11-18T19:35:05.881Z,26.10
2022-11-18T19:40:11.506Z,26.10
2022-11-18T19:45:14.913Z,26.20
2022-11-18T19:50:18.395Z,26.20
2022-11-18T19:55:22.767Z,26.10
2022-11-18T20:00:25.747Z,26.10
2022-11-18T20:05:47.499Z,26.20
2022-11-18T20:10:53.489Z,26.10
2022-11-18T20:16:01.326Z,26.10
2022-11-18T20:21:07.481Z,26.10
2022-11-18T20:26:13.631Z,26.10
2022-11-18T20:31:19.145Z,26.10
2022-11-18T20:36:24.093Z,26.10
2022-11-18T20:41:30.485Z,26.00
2022-11-18T20:46:34.586Z,25.90
2022-11-18T20:51:37.570Z,25.90
2022-11-18T20:56:41.923Z,25.80
2022-11-18T21:01:44.941Z,25.60
2022-11-18T21:06:47.950Z,25.50
2022-11-18T21:11:52.301Z,25.50
2022-11-18T21:16:57.959Z,25.50
2022-11-18T21:22:01.438Z,25.40
2022-11-18T21:27:07.009Z,25.40
2022-11-18T21:32:10.090Z,25.30
2022-11-18T21:37:13.088Z,25.20
2022-11-18T21:42:17.427Z,25.10
2022-11-18T21:47:20.428Z,25.10
2022-11-18T21:52:23.383Z,25.00
2022-11-18T21:57:27.800Z,24.90
2022-11-18T22:02:30.773Z,24.80
2022-11-18T22:07:34.092Z,24.80
2022-11-18T22:12:38.531Z,24.60
2022-11-18T22:17:41.745Z,24.50
2022-11-18T22:22:44.812Z,24.40
2022-11-18T22:27:49.228Z,24.40
2022-11-18T22:32:52.279Z,24.30
2022-11-18T22:37:55.217Z,24.20
2022-11-18T22:42:59.580Z,24.20
2022-11-18T22:48:02.605Z,24.00
2022-11-18T22:53:05.816Z,23.90
2022-11-18T22:58:10.165Z,23.90
2022-11-18T23:03:13.128Z,23.80
2022-11-18T23:08:16.202Z,23.80
2022-11-18T23:13:38.016Z,23.70
2022-11-18T23:18:41.251Z,23.70
2022-11-18T23:23:44.445Z,23.60
2022-11-18T23:28:48.793Z,23.60
2022-11-18T23:33:51.824Z,23.40
2022-11-18T23:38:55.526Z,23.40
2022-11-18T23:43:59.890Z,23.30
2022-11-18T23:49:02.909Z,23.30
2022-11-18T23:54:06.033Z,23.30
2022-11-18T23:59:10.522Z,23.20
